createdAt,value
2022-11-15T00:02:39.932Z,61.90
2022-11-15T00:05:26.360Z,107.07
2022-11-15T00:08:14.317Z,63.57
2022-11-15T00:11:03.619Z,84.33
2022-11-15T00:13:50.323Z,64.90
2022-11-15T00:16:36.582Z,73.97
2022-11-15T00:19:23.131Z,91.07
2022-11-15T00:22:09.781Z,77.43
2022-11-15T00:24:57.537Z,74.03
2022-11-15T00:27:44.065Z,75.10
2022-11-15T00:30:30.844Z,73.90
2022-11-15T00:33:17.252Z,88.40
2022-11-15T00:36:05.578Z,104.73
2022-11-15T00:38:52.243Z,103.30
2022-11-15T00:41:40.002Z,65.03
2022-11-15T00:44:26.554Z,67.57
2022-11-15T00:47:13.216Z,69.53
2022-11-15T00:50:00.038Z,65.40
2022-11-15T00:52:46.934Z,78.07
2022-11-15T00:55:33.550Z,84.07
2022-11-15T00:58:21.715Z,59.67
2022-11-15T01:01:09.827Z,57.63
2022-11-15T01:04:01.298Z,88.63
2022-11-15T01:06:48.423Z,70.63
2022-11-15T01:09:34.948Z,77.47
2022-11-15T01:12:21.527Z,74.77
2022-11-15T01:15:10.444Z,62.63
2022-11-15T01:17:57.004Z,60.93
2022-11-15T01:20:43.938Z,62.07
2022-11-15T01:23:30.485Z,52.67
2022-11-15T01:26:17.815Z,52.60
2022-11-15T01:29:04.717Z,66.53
2022-11-15T01:31:52.630Z,58.03
2022-11-15T01:34:39.207Z,56.60
2022-11-15T01:37:25.799Z,54.70
2022-11-15T01:40:12.920Z,55.43
2022-11-15T01:42:59.716Z,53.57
2022-11-15T01:45:48.487Z,51.50
2022-11-15T01:48:37.511Z,63.87
2022-11-15T01:51:28.165Z,53.73
2022-11-15T01:54:18.459Z,66.57
2022-11-15T01:57:09.233Z,52.50
2022-11-15T01:59:56.546Z,73.43
2022-11-15T02:02:43.785Z,65.03
2022-11-15T02:05:32.647Z,53.20
2022-11-15T02:08:21.820Z,74.17
2022-11-15T02:11:10.453Z,55.63
2022-11-15T02:13:57.830Z,54.37
2022-11-15T02:16:54.997Z,68.63
2022-11-15T02:20:03.063Z,54.07
2022-11-15T02:23:08.517Z,59.07
2022-11-15T02:26:08.632Z,53.03
2022-11-15T02:29:03.871Z,54.93
2022-11-15T02:31:58.064Z,54.40
2022-11-15T02:34:53.388Z,56.53
2022-11-15T02:37:47.546Z,71.37
2022-11-15T02:40:43.867Z,64.53
2022-11-15T02:43:57.319Z,65.60
2022-11-15T02:47:17.305Z,59.63
2022-11-15T02:50:10.602Z,61.67
2022-11-15T02:52:57.800Z,88.73
2022-11-15T02:55:49.432Z,61.97
2022-11-15T02:59:02.731Z,61.50
2022-11-15T03:02:02.015Z,66.13
2022-11-15T03:04:55.732Z,65.67
2022-11-15T03:07:55.845Z,71.30
2022-11-15T03:10:56.115Z,76.13
2022-11-15T03:13:49.013Z,73.97
2022-11-15T03:16:39.871Z,76.67
2022-11-15T03:19:33.224Z,81.70
2022-11-15T03:22:23.422Z,68.23
2022-11-15T03:25:15.445Z,70.03
2022-11-15T03:28:05.719Z,63.57
2022-11-15T03:30:54.385Z,73.10
2022-11-15T03:33:42.173Z,72.13
2022-11-15T03:36:29.459Z,78.97
2022-11-15T03:39:20.387Z,95.93
2022-11-15T03:42:17.798Z,68.20
2022-11-15T03:45:13.041Z,68.03
2022-11-15T03:48:04.584Z,67.77
2022-11-15T03:50:51.665Z,69.40
2022-11-15T03:53:38.237Z,79.43
2022-11-15T03:56:24.640Z,75.37
2022-11-15T03:59:12.457Z,83.97
2022-11-15T04:01:59.043Z,60.63
2022-11-15T04:04:45.572Z,57.17
2022-11-15T04:07:32.192Z,57.17
2022-11-15T04:10:19.362Z,104.33
2022-11-15T04:13:05.846Z,65.13
2022-11-15T04:15:53.697Z,54.97
2022-11-15T04:18:40.118Z,62.20
2022-11-15T04:21:44.036Z,122.53
2022-11-15T04:24:30.157Z,58.90
2022-11-15T04:27:16.916Z,71.60
2022-11-15T04:30:03.409Z,80.13
2022-11-15T04:32:51.187Z,58.03
2022-11-15T04:35:37.844Z,56.50
2022-11-15T04:38:23.377Z,72.73
2022-11-15T04:41:09.770Z,68.37
2022-11-15T04:43:56.375Z,69.50
2022-11-15T04:46:42.905Z,67.10
2022-11-15T04:49:30.695Z,66.27
2022-11-15T04:52:17.240Z,55.53
2022-11-15T04:55:08.142Z,81.20
2022-11-15T04:58:01.938Z,53.13
2022-11-15T05:00:48.416Z,61.73
2022-11-15T05:03:57.756Z,57.57
2022-11-15T05:06:45.606Z,55.37
2022-11-15T05:09:32.174Z,62.40
2022-11-15T05:12:18.738Z,60.13
2022-11-15T05:15:06.026Z,70.50
2022-11-15T05:17:52.482Z,66.83
2022-11-15T05:20:39.232Z,51.13
2022-11-15T05:23:27.242Z,64.93
2022-11-15T05:26:18.565Z,95.77
2022-11-15T05:29:05.023Z,49.47
2022-11-15T05:31:51.901Z,61.77
2022-11-15T05:34:38.871Z,57.83
2022-11-15T05:37:25.001Z,49.20
2022-11-15T05:40:12.970Z,49.10
2022-11-15T05:43:02.052Z,66.37
2022-11-15T05:45:48.785Z,77.83
2022-11-15T05:48:37.131Z,54.03
2022-11-15T05:51:24.881Z,46.53
2022-11-15T05:54:12.701Z,78.80
2022-11-15T05:57:00.998Z,81.83
2022-11-15T05:59:47.694Z,52.13
2022-11-15T06:02:34.423Z,79.00
2022-11-15T06:05:20.792Z,56.63
2022-11-15T06:08:07.075Z,65.37
2022-11-15T06:10:53.905Z,78.13
2022-11-15T06:13:41.754Z,60.87
2022-11-15T06:16:28.324Z,97.10
2022-11-15T06:19:14.789Z,73.83
2022-11-15T06:22:01.410Z,69.10
2022-11-15T06:24:47.837Z,104.13
2022-11-15T06:27:34.450Z,92.23
2022-11-15T06:30:23.011Z,78.50
2022-11-15T06:33:10.629Z,71.00
2022-11-15T06:35:56.796Z,79.17
2022-11-15T06:38:43.491Z,66.20
2022-11-15T06:41:30.102Z,74.00
2022-11-15T06:44:17.467Z,61.73
2022-11-15T06:47:05.486Z,64.40
2022-11-15T06:49:52.282Z,56.50
2022-11-15T06:52:38.667Z,56.13
2022-11-15T06:55:25.342Z,54.77
2022-11-15T06:58:11.762Z,54.57
2022-11-15T07:01:01.391Z,52.13
2022-11-15T07:03:49.386Z,51.67
2022-11-15T07:06:36.040Z,69.93
2022-11-15T07:09:22.687Z,48.40
2022-11-15T07:12:09.223Z,48.60
2022-11-15T07:14:55.716Z,67.03
2022-11-15T07:17:42.152Z,42.00
2022-11-15T07:20:30.094Z,49.50
2022-11-15T07:23:16.532Z,59.57
2022-11-15T07:26:02.880Z,44.93
2022-11-15T07:28:49.684Z,56.97
2022-11-15T07:31:36.548Z,50.20
2022-11-15T07:34:23.207Z,43.73
2022-11-15T07:37:11.180Z,46.27
2022-11-15T07:39:57.850Z,41.80
2022-11-15T07:42:56.992Z,45.77
2022-11-15T07:45:44.982Z,40.97
2022-11-15T07:48:42.660Z,40.87
2022-11-15T07:51:30.859Z,40.27
2022-11-15T07:54:18.697Z,55.30
2022-11-15T07:57:07.517Z,43.53
2022-11-15T07:59:54.263Z,39.33
2022-11-15T08:02:41.591Z,38.83
2022-11-15T08:05:28.425Z,39.37
2022-11-15T08:08:14.924Z,39.20
2022-11-15T08:11:02.976Z,41.47
2022-11-15T08:13:49.774Z,35.47
2022-11-15T08:16:36.365Z,34.53
2022-11-15T08:19:23.110Z,35.40
2022-11-15T08:22:09.507Z,35.20
2022-11-15T08:24:56.300Z,75.43
2022-11-15T08:27:44.216Z,32.53
2022-11-15T08:30:31.166Z,33.57
2022-11-15T08:33:17.739Z,33.37
2022-11-15T08:36:04.311Z,33.10
2022-11-15T08:38:50.811Z,34.70
2022-11-15T08:41:39.395Z,33.13
2022-11-15T08:44:27.321Z,32.17
2022-11-15T08:47:14.767Z,32.57
2022-11-15T08:50:01.643Z,32.73
2022-11-15T08:52:49.291Z,31.83
2022-11-15T08:55:39.065Z,33.43
2022-11-15T08:58:25.799Z,32.00
2022-11-15T09:01:19.617Z,30.87
2022-11-15T09:04:06.456Z,42.73
2022-11-15T09:06:53.010Z,41.07
2022-11-15T09:09:40.110Z,35.63
2022-11-15T09:12:26.811Z,29.00
2022-11-15T09:15:13.412Z,33.10
2022-11-15T09:18:01.800Z,28.40
2022-11-15T09:20:48.793Z,31.17
2022-11-15T09:23:35.552Z,29.47
2022-11-15T09:26:21.964Z,29.97
2022-11-15T09:29:08.567Z,29.17
2022-11-15T09:31:55.023Z,30.10
2022-11-15T09:34:42.782Z,28.40
2022-11-15T09:37:29.285Z,27.67
2022-11-15T09:40:20.396Z,28.57
2022-11-15T09:43:31.025Z,29.07
2022-11-15T09:46:24.348Z,29.30
2022-11-15T09:49:16.921Z,27.20
2022-11-15T09:51:53.553Z,28.73
2022-11-15T09:57:22.527Z,30.83
2022-11-15T10:00:38.692Z,32.40
2022-11-15T10:03:10.601Z,32.53
2022-11-15T10:05:41.714Z,33.17
2022-11-15T10:08:23.775Z,34.27
2022-11-15T10:11:15.918Z,33.60
2022-11-15T10:13:45.107Z,33.47
2022-11-15T10:16:34.392Z,35.83
2022-11-15T10:19:12.126Z,35.33
2022-11-15T10:21:52.836Z,37.23
2022-11-15T10:24:29.163Z,38.17
2022-11-15T10:26:58.097Z,38.33
2022-11-15T10:29:27.512Z,40.00
2022-11-15T10:31:55.753Z,39.97
2022-11-15T10:34:26.019Z,40.20
2022-11-15T10:36:58.389Z,41.67
2022-11-15T10:39:28.425Z,40.80
2022-11-15T10:41:58.012Z,41.37
2022-11-15T10:44:28.572Z,42.53
2022-11-15T10:47:25.370Z,45.63
2022-11-15T10:50:29.381Z,45.80
2022-11-15T10:52:57.481Z,47.60
2022-11-15T10:55:30.050Z,46.30
2022-11-15T10:58:04.269Z,48.43
2022-11-15T11:00:36.622Z,48.37
2022-11-15T11:03:08.207Z,47.23
2022-11-15T11:05:42.285Z,48.03
2022-11-15T11:08:25.438Z,49.80
2022-11-15T11:11:02.497Z,49.37
2022-11-15T11:13:32.829Z,48.20
2022-11-15T11:16:22.056Z,48.67
2022-11-15T11:18:59.218Z,51.13
2022-11-15T11:21:39.781Z,49.27
2022-11-15T11:24:16.299Z,48.90
2022-11-15T11:26:56.810Z,46.93
2022-11-15T11:29:36.923Z,45.97
2022-11-15T11:32:19.862Z,44.80
2022-11-15T11:34:56.710Z,44.43
2022-11-15T11:37:32.935Z,38.47
2022-11-15T11:40:15.362Z,38.00
2022-11-15T11:43:00.213Z,35.70
2022-11-15T11:45:47.724Z,36.90
2022-11-15T11:48:23.019Z,38.10
2022-11-15T11:50:51.658Z,35.77
2022-11-15T11:53:28.896Z,31.87
2022-11-15T11:56:01.040Z,29.23
2022-11-15T11:58:37.013Z,27.45
2022-11-15T12:01:13.690Z,25.52
2022-11-15T12:03:45.907Z,24.10
2022-11-15T12:06:26.051Z,22.83
2022-11-15T12:08:58.596Z,21.63
2022-11-15T12:11:34.960Z,22.50
2022-11-15T12:14:12.545Z,21.85
2022-11-15T12:16:45.115Z,22.00
2022-11-15T12:19:13.058Z,21.13
2022-11-15T12:21:47.970Z,21.75
2022-11-15T12:24:22.261Z,20.35
2022-11-15T12:26:54.801Z,20.58
2022-11-15T12:29:30.138Z,20.52
2022-11-15T12:32:00.989Z,20.52
2022-11-15T12:34:42.394Z,20.90
2022-11-15T12:37:35.175Z,20.08
2022-11-15T12:40:20.307Z,20.05
2022-11-15T12:43:20.604Z,20.50
2022-11-15T12:45:49.956Z,21.45
2022-11-15T12:48:57.456Z,21.00
2022-11-15T12:52:07.533Z,21.92
2022-11-15T12:54:56.740Z,21.47
2022-11-15T12:57:45.535Z,22.33
2022-11-15T13:00:49.298Z,21.90
2022-11-15T13:03:36.602Z,22.73
2022-11-15T13:06:11.299Z,23.93
2022-11-15T13:08:50.735Z,22.50
2022-11-15T13:11:51.501Z,23.37
2022-11-15T13:14:42.622Z,24.00
2022-11-15T13:17:30.782Z,22.60
2022-11-15T13:20:23.468Z,24.17
2022-11-15T13:22:55.654Z,23.90
2022-11-15T13:25:48.987Z,24.90
2022-11-15T13:28:24.101Z,24.57
2022-11-15T13:30:54.530Z,24.70
2022-11-15T13:33:25.448Z,25.27
2022-11-15T13:35:58.438Z,25.63
2022-11-15T13:38:32.656Z,26.23
2022-11-15T13:41:02.004Z,27.03
2022-11-15T13:43:37.753Z,27.00
2022-11-15T13:46:12.514Z,26.93
2022-11-15T13:48:41.300Z,26.97
2022-11-15T13:51:16.823Z,29.50
2022-11-15T13:53:49.186Z,28.10
2022-11-15T13:56:18.943Z,29.00
2022-11-15T13:58:49.050Z,28.80
2022-11-15T14:01:20.848Z,28.47
2022-11-15T14:03:52.994Z,26.90
2022-11-15T14:06:25.403Z,29.20
2022-11-15T14:09:26.592Z,27.73
2022-11-15T14:11:56.234Z,29.13
2022-11-15T14:14:25.767Z,28.87
2022-11-15T14:16:56.176Z,30.33
2022-11-15T14:19:41.914Z,30.17
2022-11-15T14:22:16.564Z,29.90
2022-11-15T14:24:46.664Z,30.90
2022-11-15T14:27:26.019Z,30.77
2022-11-15T14:29:54.170Z,29.27
2022-11-15T14:32:24.128Z,29.27
2022-11-15T14:34:56.798Z,29.30
2022-11-15T14:37:27.864Z,31.23
2022-11-15T14:39:56.433Z,30.80
2022-11-15T14:42:25.465Z,31.43
2022-11-15T14:44:54.217Z,31.53
2022-11-15T14:47:22.405Z,31.90
2022-11-15T14:49:50.678Z,31.50
2022-11-15T14:52:32.132Z,32.80
2022-11-15T14:55:02.390Z,33.53
2022-11-15T14:57:30.960Z,34.23
2022-11-15T14:59:58.999Z,33.87
2022-11-15T15:02:40.951Z,34.53
2022-11-15T15:05:16.349Z,35.17
2022-11-15T15:07:46.030Z,36.30
2022-11-15T15:10:38.996Z,35.53
2022-11-15T15:13:03.223Z,36.70
2022-11-15T15:15:36.923Z,38.13
2022-11-15T15:18:05.669Z,39.00
2022-11-15T15:20:34.054Z,39.00
2022-11-15T15:23:03.357Z,39.13
2022-11-15T15:25:34.039Z,38.67
2022-11-15T15:28:02.089Z,40.50
2022-11-15T15:30:31.474Z,41.07
2022-11-15T15:32:59.692Z,40.87
2022-11-15T15:35:32.163Z,40.67
2022-11-15T15:38:00.317Z,40.43
2022-11-15T15:40:31.975Z,42.57
2022-11-15T15:43:00.115Z,42.80
2022-11-15T15:45:29.261Z,42.83
2022-11-15T15:47:57.619Z,41.90
2022-11-15T15:50:27.777Z,43.73
2022-11-15T15:52:57.606Z,43.20
2022-11-15T15:55:26.037Z,41.73
2022-11-15T15:57:55.834Z,43.17
2022-11-15T16:00:25.868Z,42.30
2022-11-15T16:02:54.613Z,44.47
2022-11-15T16:05:23.684Z,41.60
2022-11-15T16:07:51.838Z,41.73
2022-11-15T16:10:25.952Z,42.77
2022-11-15T16:12:56.714Z,43.60
2022-11-15T16:15:26.775Z,41.93
2022-11-15T16:17:56.132Z,43.17
2022-11-15T16:20:33.475Z,41.73
2022-11-15T16:23:07.587Z,42.37
2022-11-15T16:25:43.829Z,52.93
2022-11-15T16:28:19.609Z,51.70
2022-11-15T16:30:50.043Z,45.37
2022-11-15T16:33:21.764Z,46.07
2022-11-15T16:35:50.031Z,44.47
2022-11-15T16:38:18.295Z,46.33
2022-11-15T16:40:46.342Z,43.57
2022-11-15T16:43:14.270Z,48.37
2022-11-15T16:45:43.642Z,45.90
2022-11-15T16:48:22.746Z,44.77
2022-11-15T16:50:50.691Z,51.30
2022-11-15T16:53:18.952Z,51.50
2022-11-15T16:55:46.943Z,48.70
2022-11-15T16:58:14.883Z,47.97
2022-11-15T17:00:44.320Z,47.20
2022-11-15T17:03:12.352Z,47.33
2022-11-15T17:05:40.253Z,46.37
2022-11-15T17:08:08.268Z,46.37
2022-11-15T17:10:36.207Z,46.67
2022-11-15T17:13:04.200Z,49.63
2022-11-15T17:15:32.073Z,47.63
2022-11-15T17:18:01.343Z,49.63
2022-11-15T17:20:29.302Z,50.40
2022-11-15T17:22:57.401Z,48.97
2022-11-15T17:25:25.400Z,49.70
2022-11-15T17:27:53.443Z,49.93
2022-11-15T17:30:21.464Z,50.50
2022-11-15T17:32:49.863Z,48.70
2022-11-15T17:35:19.329Z,49.93
2022-11-15T17:37:48.370Z,49.03
2022-11-15T17:40:16.941Z,49.67
2022-11-15T17:42:44.843Z,49.07
2022-11-15T17:45:13.147Z,51.63
2022-11-15T17:47:41.048Z,49.23
2022-11-15T17:50:10.711Z,50.03
2022-11-15T17:52:39.933Z,49.47
2022-11-15T17:55:08.449Z,51.33
2022-11-15T17:57:36.390Z,51.27
2022-11-15T18:00:06.322Z,51.33
2022-11-15T18:02:34.354Z,50.07
2022-11-15T18:05:03.336Z,52.37
2022-11-15T18:07:31.354Z,51.00
2022-11-15T18:10:00.658Z,50.97
2022-11-15T18:12:28.631Z,51.33
2022-11-15T18:14:56.570Z,52.13
2022-11-15T18:17:24.567Z,52.20
2022-11-15T18:19:52.473Z,53.50
2022-11-15T18:22:20.614Z,51.57
2022-11-15T18:24:48.558Z,53.03
2022-11-15T18:27:17.821Z,52.53
2022-11-15T18:29:45.715Z,53.27
2022-11-15T18:32:15.358Z,54.50
2022-11-15T18:34:43.290Z,52.83
2022-11-15T18:37:11.372Z,54.67
2022-11-15T18:39:39.289Z,54.47
2022-11-15T18:42:07.277Z,55.47
2022-11-15T18:44:36.668Z,53.57
2022-11-15T18:47:04.743Z,53.50
2022-11-15T18:49:32.680Z,52.83
2022-11-15T18:52:00.579Z,51.70
2022-11-15T18:54:31.448Z,54.10
2022-11-15T18:57:00.149Z,54.60
2022-11-15T18:59:29.008Z,55.47
2022-11-15T19:01:58.354Z,54.43
2022-11-15T19:04:26.369Z,55.47
2022-11-15T19:06:54.512Z,54.13
2022-11-15T19:09:22.443Z,54.23
2022-11-15T19:11:51.746Z,54.23
2022-11-15T19:14:24.235Z,53.67
2022-11-15T19:16:53.182Z,54.07
2022-11-15T19:19:24.515Z,57.67
2022-11-15T19:21:52.958Z,51.93
2022-11-15T19:24:21.108Z,53.97
2022-11-15T19:26:56.039Z,53.40
2022-11-15T19:29:24.916Z,54.90
2022-11-15T19:31:52.926Z,54.17
2022-11-15T19:34:22.183Z,55.50
2022-11-15T19:36:50.099Z,53.70
2022-11-15T19:39:18.707Z,53.63
2022-11-15T19:41:47.166Z,55.10
2022-11-15T19:44:15.414Z,54.57
2022-11-15T19:46:44.357Z,55.67
2022-11-15T19:49:12.462Z,56.83
2022-11-15T19:51:45.163Z,55.23
2022-11-15T19:54:13.729Z,53.97
2022-11-15T19:56:41.795Z,54.10
2022-11-15T19:59:11.707Z,54.80
2022-11-15T20:01:40.022Z,54.93
2022-11-15T20:04:10.200Z,53.80
2022-11-15T20:06:41.637Z,54.37
2022-11-15T20:09:13.414Z,55.77
2022-11-15T20:11:41.401Z,54.53
2022-11-15T20:14:11.670Z,54.83
2022-11-15T20:16:40.175Z,54.43
2022-11-15T20:19:08.897Z,56.00
2022-11-15T20:21:37.205Z,55.73
2022-11-15T20:24:05.914Z,54.70
2022-11-15T20:26:35.714Z,54.03
2022-11-15T20:29:04.049Z,55.63
2022-11-15T20:31:32.758Z,56.00
2022-11-15T20:34:01.167Z,56.80
2022-11-15T20:36:29.783Z,55.90
2022-11-15T20:38:59.363Z,55.97
2022-11-15T20:41:28.230Z,57.10
2022-11-15T20:43:57.644Z,55.27
2022-11-15T20:46:25.630Z,55.37
2022-11-15T20:48:53.494Z,57.90
2022-11-15T20:51:21.821Z,58.93
2022-11-15T20:53:49.871Z,61.60
2022-11-15T20:56:20.238Z,61.33
2022-11-15T20:58:50.451Z,62.60
2022-11-15T21:01:23.774Z,64.23
2022-11-15T21:03:52.898Z,65.10
2022-11-15T21:06:21.282Z,65.20
2022-11-15T21:09:07.506Z,64.00
2022-11-15T21:11:53.342Z,66.80
2022-11-15T21:14:21.576Z,66.10
2022-11-15T21:16:50.874Z,65.53
2022-11-15T21:19:22.654Z,68.77
2022-11-15T21:21:53.723Z,65.60
2022-11-15T21:24:22.286Z,67.93
2022-11-15T21:26:50.256Z,68.77
2022-11-15T21:29:18.197Z,71.63
2022-11-15T21:31:46.720Z,80.67
2022-11-15T21:34:16.416Z,80.73
2022-11-15T21:36:45.003Z,78.50
2022-11-15T21:39:12.907Z,80.53
2022-11-15T21:41:40.879Z,80.77
2022-11-15T21:44:08.838Z,82.80
2022-11-15T21:46:37.354Z,81.37
2022-11-15T21:49:06.998Z,79.50
2022-11-15T21:51:36.463Z,78.63
2022-11-15T21:54:04.694Z,78.67
2022-11-15T21:56:32.782Z,78.20
2022-11-15T21:59:01.268Z,77.43
2022-11-15T22:01:47.298Z,77.63
2022-11-15T22:04:15.786Z,74.67
2022-11-15T22:06:45.061Z,74.93
2022-11-15T22:09:13.184Z,76.57
2022-11-15T22:11:41.265Z,79.07
2022-11-15T22:14:09.489Z,74.50
2022-11-15T22:16:37.797Z,76.43
2022-11-15T22:19:05.993Z,76.27
2022-11-15T22:21:34.047Z,74.93
2022-11-15T22:24:03.603Z,73.13
2022-11-15T22:26:31.565Z,73.60
2022-11-15T22:28:59.640Z,75.47
2022-11-15T22:31:27.662Z,76.90
2022-11-15T22:33:55.700Z,73.37
2022-11-15T22:36:26.218Z,84.43
2022-11-15T22:38:58.398Z,81.10
2022-11-15T22:41:27.680Z,81.17
2022-11-15T22:43:55.664Z,86.33
2022-11-15T22:46:23.633Z,81.50
2022-11-15T22:48:51.597Z,82.90
2022-11-15T22:51:19.531Z,82.67
2022-11-15T22:53:47.615Z,83.07
2022-11-15T22:56:20.157Z,83.60
2022-11-15T22:58:49.690Z,80.20
2022-11-15T23:01:22.249Z,74.53
2022-11-15T23:03:50.325Z,77.50
2022-11-15T23:06:18.404Z,79.30
2022-11-15T23:08:46.368Z,78.77
2022-11-15T23:11:31.824Z,79.53
2022-11-15T23:14:01.199Z,77.77
2022-11-15T23:16:35.372Z,77.90
2022-11-15T23:19:06.015Z,79.30
2022-11-15T23:21:52.766Z,77.93
2022-11-15T23:24:21.489Z,75.00
2022-11-15T23:26:52.024Z,74.30
2022-11-15T23:32:09.845Z,78.53
2022-11-15T23:34:39.798Z,76.90
2022-11-15T23:37:09.165Z,75.77
2022-11-15T23:39:37.211Z,77.30
2022-11-15T23:42:09.106Z,77.27
2022-11-15T23:44:38.934Z,75.50
2022-11-15T23:47:06.944Z,79.47
2022-11-15T23:49:34.900Z,84.40
2022-11-15T23:52:02.836Z,85.27
2022-11-15T23:54:31.065Z,83.23
2022-11-15T23:56:59.023Z,80.57
2022-11-15T23:59:26.970Z,78.40
